sensor_id;sensor_type;location;lat;lon;timestamp;P1;durP1;ratioP1;P2;durP2;ratioP2
63112;SDS011;49206;48.020;21.378;2023-06-14T00:00:36;17.38;;;9.85;;
63112;SDS011;49206;48.020;21.378;2023-06-14T00:01:41;16.77;;;9.45;;
63112;SDS011;49206;48.020;21.378;2023-06-14T00:02:49;15.93;;;9.65;;
63112;SDS011;49206;48.020;21.378;2023-06-14T00:03:52;19.02;;;9.52;;
63112;SDS011;49206;48.020;21.378;2023-06-14T00:04:56;16.48;;;9.30;;
63112;SDS011;49206;48.020;21.378;2023-06-14T00:05:58;15.80;;;9.77;;
63112;SDS011;49206;48.020;21.378;2023-06-14T00:07:01;17.27;;;10.55;;
63112;SDS011;49206;48.020;21.378;2023-06-14T00:08:04;15.75;;;9.98;;
63112;SDS011;49206;48.020;21.378;2023-06-14T00:09:09;21.15;;;10.52;;
63112;SDS011;49206;48.020;21.378;2023-06-14T00:10:11;15.63;;;9.98;;
63112;SDS011;49206;48.020;21.378;2023-06-14T00:11:15;16.42;;;8.85;;
63112;SDS011;49206;48.020;21.378;2023-06-14T00:12:17;17.83;;;10.40;;
63112;SDS011;49206;48.020;21.378;2023-06-14T00:13:20;16.55;;;10.30;;
63112;SDS011;49206;48.020;21.378;2023-06-14T00:14:22;18.92;;;9.50;;
63112;SDS011;49206;48.020;21.378;2023-06-14T00:15:25;16.38;;;9.98;;
63112;SDS011;49206;48.020;21.378;2023-06-14T00:16:28;15.27;;;9.20;;
63112;SDS011;49206;48.020;21.378;2023-06-14T00:17:30;16.63;;;9.15;;
63112;SDS011;49206;48.020;21.378;2023-06-14T00:18:33;16.65;;;10.15;;
63112;SDS011;49206;48.020;21.378;2023-06-14T00:19:38;17.10;;;9.75;;
63112;SDS011;49206;48.020;21.378;2023-06-14T00:20:42;15.85;;;9.63;;
63112;SDS011;49206;48.020;21.378;2023-06-14T00:21:45;16.05;;;9.32;;
63112;SDS011;49206;48.020;21.378;2023-06-14T00:22:47;19.65;;;10.15;;
63112;SDS011;49206;48.020;21.378;2023-06-14T00:23:50;18.33;;;9.52;;
63112;SDS011;49206;48.020;21.378;2023-06-14T00:24:53;17.85;;;9.75;;
63112;SDS011;49206;48.020;21.378;2023-06-14T00:26:59;16.67;;;9.30;;
63112;SDS011;49206;48.020;21.378;2023-06-14T00:28:03;15.45;;;8.95;;
63112;SDS011;49206;48.020;21.378;2023-06-14T00:29:06;15.10;;;9.45;;
63112;SDS011;49206;48.020;21.378;2023-06-14T00:30:08;13.98;;;8.82;;
63112;SDS011;49206;48.020;21.378;2023-06-14T00:31:11;15.80;;;9.20;;
63112;SDS011;49206;48.020;21.378;2023-06-14T00:32:16;17.25;;;10.23;;
63112;SDS011;49206;48.020;21.378;2023-06-14T00:34:22;18.23;;;9.30;;
63112;SDS011;49206;48.020;21.378;2023-06-14T00:35:25;18.77;;;8.98;;
63112;SDS011;49206;48.020;21.378;2023-06-14T00:36:28;18.05;;;9.85;;
63112;SDS011;49206;48.020;21.378;2023-06-14T00:37:30;19.45;;;10.13;;
63112;SDS011;49206;48.020;21.378;2023-06-14T00:38:33;18.17;;;9.38;;
63112;SDS011;49206;48.020;21.378;2023-06-14T00:39:36;18.02;;;9.98;;
63112;SDS011;49206;48.020;21.378;2023-06-14T00:40:38;18.13;;;9.10;;
63112;SDS011;49206;48.020;21.378;2023-06-14T00:41:41;17.33;;;10.93;;
63112;SDS011;49206;48.020;21.378;2023-06-14T00:42:43;20.20;;;10.77;;
63112;SDS011;49206;48.020;21.378;2023-06-14T00:43:46;18.48;;;9.70;;
63112;SDS011;49206;48.020;21.378;2023-06-14T00:44:49;16.30;;;9.27;;
63112;SDS011;49206;48.020;21.378;2023-06-14T00:45:52;15.95;;;9.73;;
63112;SDS011;49206;48.020;21.378;2023-06-14T00:46:55;16.45;;;10.40;;
63112;SDS011;49206;48.020;21.378;2023-06-14T00:47:57;19.40;;;9.45;;
63112;SDS011;49206;48.020;21.378;2023-06-14T00:49:00;18.00;;;9.68;;
63112;SDS011;49206;48.020;21.378;2023-06-14T00:50:06;17.73;;;10.30;;
63112;SDS011;49206;48.020;21.378;2023-06-14T00:51:09;17.83;;;10.43;;
63112;SDS011;49206;48.020;21.378;2023-06-14T00:52:12;18.20;;;11.35;;
63112;SDS011;49206;48.020;21.378;2023-06-14T00:53:16;19.20;;;9.90;;
63112;SDS011;49206;48.020;21.378;2023-06-14T00:54:22;19.75;;;9.95;;
63112;SDS011;49206;48.020;21.378;2023-06-14T00:55:24;16.50;;;9.88;;
63112;SDS011;49206;48.020;21.378;2023-06-14T00:56:29;16.75;;;9.93;;
63112;SDS011;49206;48.020;21.378;2023-06-14T00:57:32;21.00;;;10.27;;
63112;SDS011;49206;48.020;21.378;2023-06-14T00:58:34;16.40;;;10.45;;
63112;SDS011;49206;48.020;21.378;2023-06-14T00:59:38;20.48;;;9.98;;
63112;SDS011;49206;48.020;21.378;2023-06-14T01:00:45;17.00;;;9.80;;
63112;SDS011;49206;48.020;21.378;2023-06-14T01:01:47;17.15;;;9.38;;
63112;SDS011;49206;48.020;21.378;2023-06-14T01:02:50;17.30;;;9.90;;
63112;SDS011;49206;48.020;21.378;2023-06-14T01:03:53;17.05;;;9.77;;
63112;SDS011;49206;48.020;21.378;2023-06-14T01:04:55;16.90;;;9.77;;
63112;SDS011;49206;48.020;21.378;2023-06-14T01:06:11;19.35;;;9.20;;
63112;SDS011;49206;48.020;21.378;2023-06-14T01:08:28;16.77;;;9.93;;
63112;SDS011;49206;48.020;21.378;2023-06-14T01:12:07;17.63;;;9.85;;
63112;SDS011;49206;48.020;21.378;2023-06-14T01:13:21;18.45;;;10.20;;
63112;SDS011;49206;48.020;21.378;2023-06-14T01:14:28;18.73;;;10.40;;
63112;SDS011;49206;48.020;21.378;2023-06-14T01:15:31;20.27;;;10.43;;
63112;SDS011;49206;48.020;21.378;2023-06-14T01:16:34;19.50;;;10.10;;
63112;SDS011;49206;48.020;21.378;2023-06-14T01:17:38;20.42;;;11.27;;
63112;SDS011;49206;48.020;21.378;2023-06-14T01:18:44;19.60;;;10.52;;
63112;SDS011;49206;48.020;21.378;2023-06-14T01:19:50;19.25;;;10.32;;
63112;SDS011;49206;48.020;21.378;2023-06-14T01:20:59;16.95;;;9.32;;
63112;SDS011;49206;48.020;21.378;2023-06-14T01:22:07;17.23;;;9.48;;
63112;SDS011;49206;48.020;21.378;2023-06-14T01:23:10;21.10;;;11.30;;
63112;SDS011;49206;48.020;21.378;2023-06-14T01:24:16;19.27;;;10.23;;
63112;SDS011;49206;48.020;21.378;2023-06-14T01:25:22;19.17;;;10.13;;
63112;SDS011;49206;48.020;21.378;2023-06-14T01:26:25;19.38;;;10.13;;
63112;SDS011;49206;48.020;21.378;2023-06-14T01:27:34;17.73;;;10.40;;
63112;SDS011;49206;48.020;21.378;2023-06-14T01:28:39;17.23;;;9.85;;
63112;SDS011;49206;48.020;21.378;2023-06-14T01:29:42;18.83;;;10.43;;
63112;SDS011;49206;48.020;21.378;2023-06-14T01:30:50;16.73;;;10.25;;
63112;SDS011;49206;48.020;21.378;2023-06-14T01:31:55;20.25;;;10.55;;
63112;SDS011;49206;48.020;21.378;2023-06-14T01:32:58;18.60;;;9.68;;
63112;SDS011;49206;48.020;21.378;2023-06-14T01:34:01;18.85;;;10.38;;
63112;SDS011;49206;48.020;21.378;2023-06-14T01:35:04;18.98;;;10.15;;
63112;SDS011;49206;48.020;21.378;2023-06-14T01:36:07;16.88;;;9.82;;
63112;SDS011;49206;48.020;21.378;2023-06-14T01:37:10;17.80;;;10.88;;
63112;SDS011;49206;48.020;21.378;2023-06-14T01:38:14;16.30;;;9.60;;
63112;SDS011;49206;48.020;21.378;2023-06-14T01:39:16;16.50;;;9.52;;
63112;SDS011;49206;48.020;21.378;2023-06-14T01:40:19;17.65;;;9.88;;
63112;SDS011;49206;48.020;21.378;2023-06-14T01:41:22;20.58;;;10.00;;
63112;SDS011;49206;48.020;21.378;2023-06-14T01:43:31;15.77;;;9.63;;
63112;SDS011;49206;48.020;21.378;2023-06-14T01:44:34;17.00;;;8.70;;
63112;SDS011;49206;48.020;21.378;2023-06-14T01:45:36;18.40;;;9.43;;
63112;SDS011;49206;48.020;21.378;2023-06-14T01:46:40;18.27;;;10.02;;
63112;SDS011;49206;48.020;21.378;2023-06-14T01:47:43;19.75;;;9.98;;
63112;SDS011;49206;48.020;21.378;2023-06-14T01:48:46;17.77;;;9.25;;
63112;SDS011;49206;48.020;21.378;2023-06-14T01:49:56;15.88;;;9.88;;
63112;SDS011;49206;48.020;21.378;2023-06-14T01:50:59;16.67;;;9.70;;
63112;SDS011;49206;48.020;21.378;2023-06-14T01:52:01;17.80;;;9.73;;
63112;SDS011;49206;48.020;21.378;2023-06-14T01:53:07;18.83;;;10.05;;
63112;SDS011;49206;48.020;21.378;2023-06-14T01:54:11;15.75;;;9.23;;
63112;SDS011;49206;48.020;21.378;2023-06-14T01:55:14;16.75;;;9.65;;
63112;SDS011;49206;48.020;21.378;2023-06-14T01:56:17;17.48;;;9.90;;
63112;SDS011;49206;48.020;21.378;2023-06-14T01:57:23;17.92;;;9.68;;
63112;SDS011;49206;48.020;21.378;2023-06-14T01:58:28;18.60;;;10.65;;
63112;SDS011;49206;48.020;21.378;2023-06-14T01:59:32;17.20;;;10.02;;
63112;SDS011;49206;48.020;21.378;2023-06-14T02:00:36;20.75;;;11.18;;
63112;SDS011;49206;48.020;21.378;2023-06-14T02:01:39;16.33;;;9.55;;
63112;SDS011;49206;48.020;21.378;2023-06-14T02:03:45;17.80;;;9.93;;
63112;SDS011;49206;48.020;21.378;2023-06-14T02:04:50;16.17;;;9.52;;
63112;SDS011;49206;48.020;21.378;2023-06-14T02:05:53;17.42;;;9.90;;
63112;SDS011;49206;48.020;21.378;2023-06-14T02:06:57;18.20;;;10.27;;
63112;SDS011;49206;48.020;21.378;2023-06-14T02:08:00;17.33;;;10.23;;
63112;SDS011;49206;48.020;21.378;2023-06-14T02:09:03;16.70;;;10.02;;
63112;SDS011;49206;48.020;21.378;2023-06-14T02:10:06;17.30;;;9.93;;
63112;SDS011;49206;48.020;21.378;2023-06-14T02:11:09;19.50;;;9.95;;
63112;SDS011;49206;48.020;21.378;2023-06-14T02:12:12;15.55;;;8.65;;
63112;SDS011;49206;48.020;21.378;2023-06-14T02:13:14;24.55;;;10.35;;
63112;SDS011;49206;48.020;21.378;2023-06-14T02:14:20;16.50;;;9.30;;
63112;SDS011;49206;48.020;21.378;2023-06-14T02:15:23;15.95;;;10.10;;
63112;SDS011;49206;48.020;21.378;2023-06-14T02:16:25;18.23;;;9.75;;
63112;SDS011;49206;48.020;21.378;2023-06-14T02:17:29;16.10;;;9.52;;
63112;SDS011;49206;48.020;21.378;2023-06-14T02:18:32;19.38;;;9.70;;
63112;SDS011;49206;48.020;21.378;2023-06-14T02:19:35;15.77;;;9.38;;
63112;SDS011;49206;48.020;21.378;2023-06-14T02:20:37;18.77;;;10.07;;
63112;SDS011;49206;48.020;21.378;2023-06-14T02:21:40;19.25;;;9.90;;
63112;SDS011;49206;48.020;21.378;2023-06-14T02:22:43;19.65;;;9.63;;
63112;SDS011;49206;48.020;21.378;2023-06-14T02:23:46;19.38;;;10.40;;
63112;SDS011;49206;48.020;21.378;2023-06-14T02:24:48;17.60;;;9.70;;
63112;SDS011;49206;48.020;21.378;2023-06-14T02:26:02;18.33;;;9.57;;
63112;SDS011;49206;48.020;21.378;2023-06-14T02:27:05;17.50;;;9.85;;
63112;SDS011;49206;48.020;21.378;2023-06-14T02:28:08;19.40;;;10.85;;
63112;SDS011;49206;48.020;21.378;2023-06-14T02:29:12;16.10;;;9.15;;
63112;SDS011;49206;48.020;21.378;2023-06-14T02:30:17;22.80;;;9.10;;
63112;SDS011;49206;48.020;21.378;2023-06-14T02:31:19;19.92;;;10.18;;
63112;SDS011;49206;48.020;21.378;2023-06-14T02:32:23;17.13;;;9.70;;
63112;SDS011;49206;48.020;21.378;2023-06-14T02:33:25;15.10;;;8.57;;
63112;SDS011;49206;48.020;21.378;2023-06-14T02:34:28;16.63;;;9.40;;
63112;SDS011;49206;48.020;21.378;2023-06-14T02:35:30;17.83;;;9.82;;
63112;SDS011;49206;48.020;21.378;2023-06-14T02:36:33;18.92;;;9.88;;
63112;SDS011;49206;48.020;21.378;2023-06-14T02:37:35;17.85;;;8.88;;
63112;SDS011;49206;48.020;21.378;2023-06-14T02:38:38;17.85;;;9.68;;
63112;SDS011;49206;48.020;21.378;2023-06-14T02:39:43;15.90;;;8.98;;
63112;SDS011;49206;48.020;21.378;2023-06-14T02:40:45;14.75;;;9.30;;
63112;SDS011;49206;48.020;21.378;2023-06-14T02:41:49;19.60;;;9.18;;
63112;SDS011;49206;48.020;21.378;2023-06-14T02:42:54;16.27;;;9.48;;
63112;SDS011;49206;48.020;21.378;2023-06-14T02:43:57;15.25;;;8.80;;
63112;SDS011;49206;48.020;21.378;2023-06-14T02:45:03;14.18;;;8.57;;
63112;SDS011;49206;48.020;21.378;2023-06-14T02:46:06;15.75;;;8.73;;
63112;SDS011;49206;48.020;21.378;2023-06-14T02:47:09;16.83;;;8.80;;
63112;SDS011;49206;48.020;21.378;2023-06-14T02:48:11;17.55;;;9.00;;
63112;SDS011;49206;48.020;21.378;2023-06-14T02:49:15;15.52;;;9.52;;
63112;SDS011;49206;48.020;21.378;2023-06-14T02:50:18;16.65;;;9.05;;
63112;SDS011;49206;48.020;21.378;2023-06-14T02:51:20;16.75;;;9.30;;
63112;SDS011;49206;48.020;21.378;2023-06-14T02:52:23;16.67;;;9.10;;
63112;SDS011;49206;48.020;21.378;2023-06-14T02:54:29;15.43;;;8.52;;
63112;SDS011;49206;48.020;21.378;2023-06-14T02:55:33;16.92;;;9.35;;
63112;SDS011;49206;48.020;21.378;2023-06-14T02:56:35;16.55;;;8.82;;
63112;SDS011;49206;48.020;21.378;2023-06-14T02:57:38;17.08;;;8.85;;
63112;SDS011;49206;48.020;21.378;2023-06-14T02:58:43;17.15;;;9.18;;
63112;SDS011;49206;48.020;21.378;2023-06-14T02:59:46;16.92;;;9.00;;
63112;SDS011;49206;48.020;21.378;2023-06-14T03:00:48;15.23;;;8.52;;
63112;SDS011;49206;48.020;21.378;2023-06-14T03:01:51;13.77;;;8.35;;
63112;SDS011;49206;48.020;21.378;2023-06-14T03:02:54;16.50;;;8.93;;
63112;SDS011;49206;48.020;21.378;2023-06-14T03:03:57;14.55;;;7.95;;
63112;SDS011;49206;48.020;21.378;2023-06-14T03:05:00;16.10;;;8.70;;
63112;SDS011;49206;48.020;21.378;2023-06-14T03:06:05;17.08;;;8.30;;
63112;SDS011;49206;48.020;21.378;2023-06-14T03:07:10;13.75;;;8.57;;
63112;SDS011;49206;48.020;21.378;2023-06-14T03:08:17;15.65;;;8.02;;
63112;SDS011;49206;48.020;21.378;2023-06-14T03:09:25;14.68;;;8.43;;
63112;SDS011;49206;48.020;21.378;2023-06-14T03:10:27;16.98;;;9.07;;
63112;SDS011;49206;48.020;21.378;2023-06-14T03:11:32;14.45;;;7.55;;
63112;SDS011;49206;48.020;21.378;2023-06-14T03:12:35;14.25;;;9.25;;
63112;SDS011;49206;48.020;21.378;2023-06-14T03:13:39;13.85;;;7.68;;
63112;SDS011;49206;48.020;21.378;2023-06-14T03:14:43;16.15;;;8.63;;
63112;SDS011;49206;48.020;21.378;2023-06-14T03:15:49;17.00;;;9.25;;
63112;SDS011;49206;48.020;21.378;2023-06-14T03:16:53;18.38;;;9.05;;
63112;SDS011;49206;48.020;21.378;2023-06-14T03:17:59;15.30;;;9.10;;
63112;SDS011;49206;48.020;21.378;2023-06-14T03:19:01;14.15;;;8.73;;
63112;SDS011;49206;48.020;21.378;2023-06-14T03:20:06;14.80;;;8.45;;
63112;SDS011;49206;48.020;21.378;2023-06-14T03:21:10;18.10;;;8.27;;
63112;SDS011;49206;48.020;21.378;2023-06-14T03:22:16;21.00;;;9.52;;
63112;SDS011;49206;48.020;21.378;2023-06-14T03:23:19;12.85;;;7.35;;
63112;SDS011;49206;48.020;21.378;2023-06-14T03:24:24;16.52;;;8.20;;
63112;SDS011;49206;48.020;21.378;2023-06-14T03:25:31;16.35;;;8.27;;
63112;SDS011;49206;48.020;21.378;2023-06-14T03:26:37;16.02;;;8.80;;
63112;SDS011;49206;48.020;21.378;2023-06-14T03:27:40;17.63;;;8.38;;
63112;SDS011;49206;48.020;21.378;2023-06-14T03:28:42;16.23;;;8.52;;
63112;SDS011;49206;48.020;21.378;2023-06-14T03:29:46;17.27;;;8.73;;
63112;SDS011;49206;48.020;21.378;2023-06-14T03:30:48;15.70;;;8.18;;
63112;SDS011;49206;48.020;21.378;2023-06-14T03:31:58;16.70;;;8.40;;
63112;SDS011;49206;48.020;21.378;2023-06-14T03:33:09;18.75;;;9.18;;
63112;SDS011;49206;48.020;21.378;2023-06-14T03:34:14;14.95;;;8.43;;
63112;SDS011;49206;48.020;21.378;2023-06-14T03:35:17;19.77;;;11.27;;
63112;SDS011;49206;48.020;21.378;2023-06-14T03:36:22;21.17;;;11.90;;
63112;SDS011;49206;48.020;21.378;2023-06-14T03:37:25;18.02;;;9.57;;
63112;SDS011;49206;48.020;21.378;2023-06-14T03:38:27;16.52;;;9.00;;
63112;SDS011;49206;48.020;21.378;2023-06-14T03:39:29;15.48;;;9.07;;
63112;SDS011;49206;48.020;21.378;2023-06-14T03:40:32;16.13;;;8.73;;
63112;SDS011;49206;48.020;21.378;2023-06-14T03:41:37;18.48;;;8.98;;
63112;SDS011;49206;48.020;21.378;2023-06-14T03:42:39;17.30;;;9.52;;
63112;SDS011;49206;48.020;21.378;2023-06-14T03:43:42;15.85;;;8.65;;
63112;SDS011;49206;48.020;21.378;2023-06-14T03:44:45;15.32;;;8.40;;
63112;SDS011;49206;48.020;21.378;2023-06-14T03:45:48;14.57;;;8.38;;
63112;SDS011;49206;48.020;21.378;2023-06-14T03:46:51;18.60;;;9.52;;
63112;SDS011;49206;48.020;21.378;2023-06-14T03:47:54;15.77;;;8.55;;
63112;SDS011;49206;48.020;21.378;2023-06-14T03:48:57;15.43;;;8.50;;
63112;SDS011;49206;48.020;21.378;2023-06-14T03:49:59;18.10;;;9.50;;
63112;SDS011;49206;48.020;21.378;2023-06-14T03:51:03;13.85;;;8.23;;
63112;SDS011;49206;48.020;21.378;2023-06-14T03:52:05;17.02;;;9.20;;
63112;SDS011;49206;48.020;21.378;2023-06-14T03:53:10;15.05;;;8.90;;
63112;SDS011;49206;48.020;21.378;2023-06-14T03:54:15;16.13;;;8.80;;
63112;SDS011;49206;48.020;21.378;2023-06-14T03:55:37;15.40;;;8.45;;
63112;SDS011;49206;48.020;21.378;2023-06-14T03:57:00;16.35;;;8.70;;
63112;SDS011;49206;48.020;21.378;2023-06-14T03:58:03;14.80;;;8.40;;
63112;SDS011;49206;48.020;21.378;2023-06-14T03:59:05;16.73;;;8.77;;
63112;SDS011;49206;48.020;21.378;2023-06-14T04:00:09;14.45;;;8.30;;
63112;SDS011;49206;48.020;21.378;2023-06-14T04:01:14;17.30;;;8.95;;
63112;SDS011;49206;48.020;21.378;2023-06-14T04:02:17;17.70;;;9.32;;
63112;SDS011;49206;48.020;21.378;2023-06-14T04:03:22;15.10;;;8.13;;
63112;SDS011;49206;48.020;21.378;2023-06-14T04:04:27;14.75;;;9.07;;
63112;SDS011;49206;48.020;21.378;2023-06-14T04:05:32;16.60;;;8.57;;
63112;SDS011;49206;48.020;21.378;2023-06-14T04:06:35;15.98;;;8.88;;
63112;SDS011;49206;48.020;21.378;2023-06-14T04:07:39;16.52;;;8.65;;
63112;SDS011;49206;48.020;21.378;2023-06-14T04:09:47;16.02;;;7.82;;
63112;SDS011;49206;48.020;21.378;2023-06-14T04:10:50;14.75;;;8.00;;
63112;SDS011;49206;48.020;21.378;2023-06-14T04:11:52;15.10;;;8.32;;
63112;SDS011;49206;48.020;21.378;2023-06-14T04:12:55;14.27;;;8.40;;
63112;SDS011;49206;48.020;21.378;2023-06-14T04:13:57;17.98;;;9.38;;
63112;SDS011;49206;48.020;21.378;2023-06-14T04:15:00;14.55;;;8.48;;
63112;SDS011;49206;48.020;21.378;2023-06-14T04:16:21;17.13;;;9.10;;
63112;SDS011;49206;48.020;21.378;2023-06-14T04:17:23;12.43;;;7.65;;
63112;SDS011;49206;48.020;21.378;2023-06-14T04:18:28;18.00;;;9.55;;
63112;SDS011;49206;48.020;21.378;2023-06-14T04:19:31;18.60;;;8.50;;
63112;SDS011;49206;48.020;21.378;2023-06-14T04:20:33;16.50;;;8.23;;
63112;SDS011;49206;48.020;21.378;2023-06-14T04:21:38;18.75;;;9.40;;
63112;SDS011;49206;48.020;21.378;2023-06-14T04:22:41;21.15;;;9.25;;
63112;SDS011;49206;48.020;21.378;2023-06-14T04:23:46;16.23;;;8.80;;
63112;SDS011;49206;48.020;21.378;2023-06-14T04:24:52;15.45;;;8.68;;
63112;SDS011;49206;48.020;21.378;2023-06-14T04:26:16;18.63;;;8.85;;
63112;SDS011;49206;48.020;21.378;2023-06-14T04:27:20;15.23;;;9.10;;
63112;SDS011;49206;48.020;21.378;2023-06-14T04:28:23;15.07;;;9.48;;
63112;SDS011;49206;48.020;21.378;2023-06-14T04:29:29;17.17;;;8.45;;
63112;SDS011;49206;48.020;21.378;2023-06-14T04:30:39;13.40;;;9.00;;
63112;SDS011;49206;48.020;21.378;2023-06-14T04:31:43;14.75;;;8.63;;
63112;SDS011;49206;48.020;21.378;2023-06-14T04:32:46;17.38;;;8.93;;
63112;SDS011;49206;48.020;21.378;2023-06-14T04:33:50;15.75;;;8.32;;
63112;SDS011;49206;48.020;21.378;2023-06-14T04:34:56;17.85;;;8.68;;
63112;SDS011;49206;48.020;21.378;2023-06-14T04:36:00;16.33;;;8.65;;
63112;SDS011;49206;48.020;21.378;2023-06-14T04:37:02;15.75;;;9.20;;
63112;SDS011;49206;48.020;21.378;2023-06-14T04:38:11;16.65;;;8.80;;
63112;SDS011;49206;48.020;21.378;2023-06-14T04:39:13;21.10;;;9.38;;
63112;SDS011;49206;48.020;21.378;2023-06-14T04:40:17;15.43;;;9.23;;
63112;SDS011;49206;48.020;21.378;2023-06-14T04:41:22;13.57;;;8.63;;
63112;SDS011;49206;48.020;21.378;2023-06-14T04:42:33;17.02;;;8.43;;
63112;SDS011;49206;48.020;21.378;2023-06-14T04:43:41;16.40;;;8.27;;
63112;SDS011;49206;48.020;21.378;2023-06-14T04:45:47;12.57;;;7.65;;
63112;SDS011;49206;48.020;21.378;2023-06-14T04:46:50;14.63;;;8.50;;
63112;SDS011;49206;48.020;21.378;2023-06-14T04:47:56;12.25;;;7.57;;
63112;SDS011;49206;48.020;21.378;2023-06-14T04:49:02;13.60;;;7.90;;
63112;SDS011;49206;48.020;21.378;2023-06-14T04:50:04;13.85;;;8.40;;
63112;SDS011;49206;48.020;21.378;2023-06-14T04:51:10;16.02;;;8.52;;
63112;SDS011;49206;48.020;21.378;2023-06-14T04:52:13;15.23;;;8.23;;
63112;SDS011;49206;48.020;21.378;2023-06-14T04:53:19;13.82;;;8.27;;
63112;SDS011;49206;48.020;21.378;2023-06-14T04:54:28;13.52;;;7.80;;
63112;SDS011;49206;48.020;21.378;2023-06-14T04:55:34;14.57;;;8.75;;
63112;SDS011;49206;48.020;21.378;2023-06-14T04:56:40;14.43;;;7.47;;
63112;SDS011;49206;48.020;21.378;2023-06-14T04:57:45;15.43;;;8.73;;
63112;SDS011;49206;48.020;21.378;2023-06-14T04:58:48;16.33;;;8.35;;
63112;SDS011;49206;48.020;21.378;2023-06-14T04:59:51;22.75;;;9.27;;
63112;SDS011;49206;48.020;21.378;2023-06-14T05:00:59;15.05;;;8.38;;
63112;SDS011;49206;48.020;21.378;2023-06-14T05:02:03;15.35;;;9.57;;
63112;SDS011;49206;48.020;21.378;2023-06-14T05:03:07;15.02;;;8.60;;
63112;SDS011;49206;48.020;21.378;2023-06-14T05:04:11;14.82;;;7.97;;
63112;SDS011;49206;48.020;21.378;2023-06-14T05:05:13;13.57;;;8.55;;
63112;SDS011;49206;48.020;21.378;2023-06-14T05:06:18;19.35;;;9.00;;
63112;SDS011;49206;48.020;21.378;2023-06-14T05:07:21;12.07;;;7.82;;
63112;SDS011;49206;48.020;21.378;2023-06-14T05:08:26;14.70;;;8.10;;
63112;SDS011;49206;48.020;21.378;2023-06-14T05:09:29;16.00;;;8.05;;
63112;SDS011;49206;48.020;21.378;2023-06-14T05:10:32;13.18;;;7.47;;
63112;SDS011;49206;48.020;21.378;2023-06-14T05:11:36;11.32;;;7.25;;
63112;SDS011;49206;48.020;21.378;2023-06-14T05:12:39;13.30;;;7.65;;
63112;SDS011;49206;48.020;21.378;2023-06-14T05:13:43;13.85;;;7.10;;
63112;SDS011;49206;48.020;21.378;2023-06-14T05:14:47;16.85;;;6.93;;
63112;SDS011;49206;48.020;21.378;2023-06-14T05:15:52;14.38;;;8.07;;
63112;SDS011;49206;48.020;21.378;2023-06-14T05:16:55;12.45;;;7.35;;
63112;SDS011;49206;48.020;21.378;2023-06-14T05:17:57;13.48;;;8.02;;
63112;SDS011;49206;48.020;21.378;2023-06-14T05:19:00;12.80;;;7.22;;
63112;SDS011;49206;48.020;21.378;2023-06-14T05:20:03;12.50;;;7.43;;
63112;SDS011;49206;48.020;21.378;2023-06-14T05:21:07;12.32;;;7.60;;
63112;SDS011;49206;48.020;21.378;2023-06-14T05:22:10;14.48;;;7.43;;
63112;SDS011;49206;48.020;21.378;2023-06-14T05:23:13;11.35;;;7.18;;
63112;SDS011;49206;48.020;21.378;2023-06-14T05:24:17;14.55;;;7.95;;
63112;SDS011;49206;48.020;21.378;2023-06-14T05:25:20;13.52;;;7.15;;
63112;SDS011;49206;48.020;21.378;2023-06-14T05:26:23;11.27;;;7.13;;
63112;SDS011;49206;48.020;21.378;2023-06-14T05:27:27;11.45;;;6.70;;
63112;SDS011;49206;48.020;21.378;2023-06-14T05:28:30;11.35;;;7.28;;
63112;SDS011;49206;48.020;21.378;2023-06-14T05:29:32;14.73;;;7.45;;
63112;SDS011;49206;48.020;21.378;2023-06-14T05:30:35;11.27;;;6.72;;
63112;SDS011;49206;48.020;21.378;2023-06-14T05:31:38;11.25;;;6.72;;
63112;SDS011;49206;48.020;21.378;2023-06-14T05:32:40;11.35;;;6.95;;
63112;SDS011;49206;48.020;21.378;2023-06-14T05:33:44;11.30;;;6.60;;
63112;SDS011;49206;48.020;21.378;2023-06-14T05:34:46;13.80;;;6.80;;
63112;SDS011;49206;48.020;21.378;2023-06-14T05:35:49;11.30;;;6.53;;
63112;SDS011;49206;48.020;21.378;2023-06-14T05:36:52;10.98;;;6.88;;
63112;SDS011;49206;48.020;21.378;2023-06-14T05:37:54;11.32;;;7.00;;
63112;SDS011;49206;48.020;21.378;2023-06-14T05:38:58;10.68;;;6.78;;
63112;SDS011;49206;48.020;21.378;2023-06-14T05:40:07;11.77;;;6.38;;
63112;SDS011;49206;48.020;21.378;2023-06-14T05:41:12;13.45;;;7.22;;
63112;SDS011;49206;48.020;21.378;2023-06-14T05:42:14;9.05;;;5.95;;
63112;SDS011;49206;48.020;21.378;2023-06-14T05:43:17;14.63;;;7.85;;
63112;SDS011;49206;48.020;21.378;2023-06-14T05:44:19;13.30;;;7.60;;
63112;SDS011;49206;48.020;21.378;2023-06-14T05:45:22;13.27;;;7.07;;
63112;SDS011;49206;48.020;21.378;2023-06-14T05:46:25;14.10;;;6.65;;
63112;SDS011;49206;48.020;21.378;2023-06-14T05:47:27;11.60;;;7.35;;
63112;SDS011;49206;48.020;21.378;2023-06-14T05:48:30;12.10;;;6.80;;
63112;SDS011;49206;48.020;21.378;2023-06-14T05:49:34;11.18;;;6.60;;
63112;SDS011;49206;48.020;21.378;2023-06-14T05:50:37;11.57;;;6.85;;
63112;SDS011;49206;48.020;21.378;2023-06-14T05:51:43;11.25;;;6.90;;
63112;SDS011;49206;48.020;21.378;2023-06-14T05:52:46;10.68;;;7.28;;
63112;SDS011;49206;48.020;21.378;2023-06-14T05:53:48;11.30;;;6.65;;
63112;SDS011;49206;48.020;21.378;2023-06-14T05:54:51;11.40;;;7.10;;
63112;SDS011;49206;48.020;21.378;2023-06-14T05:55:53;10.82;;;6.65;;
63112;SDS011;49206;48.020;21.378;2023-06-14T05:56:57;10.88;;;6.55;;
63112;SDS011;49206;48.020;21.378;2023-06-14T05:58:05;12.48;;;7.20;;
63112;SDS011;49206;48.020;21.378;2023-06-14T05:59:09;15.45;;;8.32;;
63112;SDS011;49206;48.020;21.378;2023-06-14T06:00:12;16.30;;;7.40;;
63112;SDS011;49206;48.020;21.378;2023-06-14T06:01:17;12.52;;;6.75;;
63112;SDS011;49206;48.020;21.378;2023-06-14T06:02:20;10.80;;;6.72;;
63112;SDS011;49206;48.020;21.378;2023-06-14T06:03:23;12.52;;;7.00;;
63112;SDS011;49206;48.020;21.378;2023-06-14T06:04:26;12.40;;;8.15;;
63112;SDS011;49206;48.020;21.378;2023-06-14T06:05:29;12.65;;;7.38;;
63112;SDS011;49206;48.020;21.378;2023-06-14T06:06:31;12.35;;;7.35;;
63112;SDS011;49206;48.020;21.378;2023-06-14T06:07:34;12.48;;;7.20;;
63112;SDS011;49206;48.020;21.378;2023-06-14T06:08:39;11.43;;;6.85;;
63112;SDS011;49206;48.020;21.378;2023-06-14T06:09:43;12.48;;;7.53;;
63112;SDS011;49206;48.020;21.378;2023-06-14T06:10:45;13.50;;;7.13;;
63112;SDS011;49206;48.020;21.378;2023-06-14T06:11:48;12.57;;;7.45;;
63112;SDS011;49206;48.020;21.378;2023-06-14T06:12:55;11.32;;;7.15;;
63112;SDS011;49206;48.020;21.378;2023-06-14T06:13:57;10.85;;;7.13;;
63112;SDS011;49206;48.020;21.378;2023-06-14T06:15:00;11.68;;;7.40;;
63112;SDS011;49206;48.020;21.378;2023-06-14T06:16:03;12.85;;;7.95;;
63112;SDS011;49206;48.020;21.378;2023-06-14T06:17:06;13.65;;;8.13;;
63112;SDS011;49206;48.020;21.378;2023-06-14T06:18:08;12.98;;;7.22;;
63112;SDS011;49206;48.020;21.378;2023-06-14T06:19:11;12.05;;;7.60;;
63112;SDS011;49206;48.020;21.378;2023-06-14T06:20:16;11.75;;;7.07;;
63112;SDS011;49206;48.020;21.378;2023-06-14T06:21:19;11.30;;;6.97;;
63112;SDS011;49206;48.020;21.378;2023-06-14T06:22:21;10.35;;;7.50;;
63112;SDS011;49206;48.020;21.378;2023-06-14T06:23:24;11.93;;;7.45;;
63112;SDS011;49206;48.020;21.378;2023-06-14T06:24:26;13.00;;;7.18;;
63112;SDS011;49206;48.020;21.378;2023-06-14T06:25:29;9.95;;;6.65;;